Bo Jerusalem, Puerto Rico
Current Conditions -  °F | °C
As of 7:53 AM on Tuesday 21 Oct 2014 (Local Time) from TJNR Reporting Station
Few Clouds Few Clouds  
Wind Chill: 83°   Ceiling: Unl
Heat Index: 90°   Visibility: 10mi
Dew Point: 75°   Wind: 6mph
Humidity: 77%   Direction: 70°ENE
Pressure: 29.99"   Gusts: NA
Location:  18.3304°N, 65.6573°W
Report Text: TJNR 211153Z AUTO 07005KT 10SM FEW027 28/24 A2999 RMK AO2 RAE1057 SLP154 P0000 60004 70005 T02830239 10283 20250 51019
Loading
Personal Weather Stations






























Interactive Weather Map
Tropical Storm Tracking
New forecast layout! Learn more

10-Day Weather Forecast

Advertisements
Track Severe Weather on mobile